Time;durP1;ratioP1;P1;durP2;ratioP2;P2;SDS_P1;SDS_P2;PMS_P1;PMS_P2;Temp;Humidity;BMP_temperature;BMP_pressure;BME280_temperature;BME280_humidity;BME280_pressure;Samples;Min_cycle;Max_cycle;Signal;HPM_P1;HPM_P2
2022/05/20 03:04:20;;;;;;;24.40;22.93;;;15.40;99.90;;;;;;4995842;28;20212;-79
2022/05/20 03:06:48;;;;;;;23.70;22.00;;;15.30;99.90;;;;;;4993809;28;20644;-77
2022/05/20 03:09:20;;;;;;;23.27;21.87;;;15.30;99.90;;;;;;4994273;28;20660;-79
2022/05/20 03:11:46;;;;;;;27.63;25.67;;;15.20;99.90;;;;;;4981490;28;20249;-79
2022/05/20 03:14:14;;;;;;;21.57;19.73;;;15.20;99.90;;;;;;4979216;28;20188;-76
2022/05/20 03:16:41;;;;;;;17.57;16.20;;;15.20;99.90;;;;;;4980269;28;20185;-77
2022/05/20 03:19:07;;;;;;;15.83;14.57;;;15.10;99.90;;;;;;4976141;28;20273;-79
2022/05/20 03:21:35;;;;;;;25.87;17.87;;;15.10;99.90;;;;;;4976473;28;20256;-79
2022/05/20 03:24:01;;;;;;;16.43;15.17;;;15.10;99.90;;;;;;4977064;28;20639;-79
2022/05/20 03:26:29;;;;;;;15.77;14.50;;;15.20;99.90;;;;;;4978939;28;20181;-77
2022/05/20 03:28:54;;;;;;;13.93;12.70;;;15.20;99.90;;;;;;4981231;28;20173;-77
2022/05/20 03:31:21;;;;;;;13.87;12.87;;;15.20;99.90;;;;;;4977400;28;20295;-80
2022/05/20 03:33:46;;;;;;;13.97;12.77;;;15.20;99.90;;;;;;4976704;28;20177;-79
2022/05/20 03:36:14;;;;;;;12.00;11.20;;;15.10;99.90;;;;;;4976305;28;20185;-79
2022/05/20 03:38:39;;;;;;;12.90;12.00;;;15.10;99.90;;;;;;4976112;28;20244;-79
2022/05/20 03:41:06;;;;;;;16.33;14.90;;;15.10;99.90;;;;;;4974909;28;20232;-78
2022/05/20 03:43:33;;;;;;;27.77;25.83;;;15.10;99.90;;;;;;4974797;28;20180;-79
2022/05/20 03:46:00;;;;;;;19.30;18.00;;;15.00;99.90;;;;;;4973892;28;20201;-79
2022/05/20 03:48:27;;;;;;;19.97;18.77;;;15.00;99.90;;;;;;4974260;28;20174;-78
2022/05/20 03:50:53;;;;;;;20.30;19.03;;;15.00;99.90;;;;;;4975646;28;20205;-79
2022/05/20 03:53:19;;;;;;;21.27;19.43;;;15.00;99.90;;;;;;4975785;28;20187;-79
2022/05/20 03:55:45;;;;;;;15.00;13.97;;;15.00;99.90;;;;;;4974114;28;20185;-70
2022/05/20 03:58:11;;;;;;;19.80;18.13;;;15.00;99.90;;;;;;4973388;28;20232;-71
2022/05/20 04:03:23;;;;;;;18.27;16.97;;;15.10;99.90;;;;;;4972951;28;20184;-70
2022/05/20 04:05:49;;;;;;;16.47;14.03;;;15.10;99.90;;;;;;4973594;28;20177;-70
2022/05/20 04:08:16;;;;;;;17.93;16.40;;;15.20;99.90;;;;;;4972603;28;20235;-71
2022/05/20 04:10:42;;;;;;;29.10;27.17;;;15.20;99.90;;;;;;4971580;28;20197;-70
2022/05/20 04:13:08;;;;;;;17.77;16.77;;;15.30;99.90;;;;;;4973164;28;20830;-70
2022/05/20 04:15:33;;;;;;;53.63;50.53;;;15.30;99.90;;;;;;4975246;28;20196;-70
2022/05/20 04:18:00;;;;;;;47.20;44.67;;;15.40;99.90;;;;;;4972615;28;20235;-70
2022/05/20 04:20:26;;;;;;;50.93;47.37;;;15.40;99.90;;;;;;4972042;28;20227;-71
2022/05/20 04:22:52;;;;;;;60.43;57.10;;;15.40;99.90;;;;;;4968961;28;20189;-73
2022/05/20 04:25:18;;;;;;;68.10;64.17;;;15.40;99.90;;;;;;4971257;28;20184;-71
2022/05/20 04:27:43;;;;;;;101.73;96.00;;;15.50;99.90;;;;;;4973851;28;20563;-71
2022/05/20 04:30:10;;;;;;;97.83;92.37;;;15.50;99.90;;;;;;4969497;28;20679;-69
2022/05/20 04:32:36;;;;;;;84.13;79.33;;;15.50;99.90;;;;;;4983230;28;20264;-69
2022/05/20 04:35:01;;;;;;;104.20;98.30;;;15.60;99.90;;;;;;4991243;28;20275;-70
2022/05/20 04:37:27;;;;;;;100.47;94.77;;;15.70;99.90;;;;;;4991905;28;20192;-69
2022/05/20 04:39:54;;;;;;;131.53;124.43;;;15.70;99.90;;;;;;4987886;28;20268;-70
2022/05/20 04:47:51;;;;;;;17.63;16.03;;;15.80;99.90;;;;;;4972299;28;20230;-69
2022/05/20 04:50:16;;;;;;;26.67;24.80;;;15.90;99.90;;;;;;4971201;28;20227;-71
2022/05/20 04:52:42;;;;;;;24.23;22.40;;;15.90;99.90;;;;;;4972769;28;20665;-71
2022/05/20 04:55:08;;;;;;;24.00;22.00;;;15.90;99.90;;;;;;4972200;28;20185;-71
2022/05/20 04:57:47;;;;;;;57.43;54.03;;;15.90;99.90;;;;;;4971216;28;20560;-71
2022/05/20 05:00:15;;;;;;;52.53;49.23;;;16.00;99.90;;;;;;4971371;28;20192;-73
2022/05/20 05:02:41;;;;;;;39.13;36.53;;;16.00;99.90;;;;;;4971352;28;20292;-71
2022/05/20 05:05:09;;;;;;;57.13;53.47;;;16.10;99.90;;;;;;4960322;28;20196;-72
2022/05/20 05:07:40;;;;;;;42.63;39.93;;;16.30;99.90;;;;;;4971672;28;20181;-71
2022/05/20 05:10:07;;;;;;;36.87;34.60;;;16.50;99.90;;;;;;4972175;28;20181;-71
2022/05/20 05:12:33;;;;;;;59.27;56.00;;;16.80;99.90;;;;;;4970956;28;20209;-71
2022/05/20 05:14:59;;;;;;;35.77;33.53;;;17.10;99.90;;;;;;4972357;28;20835;-71
2022/05/20 05:20:16;;;;;;;73.07;68.60;;;17.90;99.90;;;;;;4951713;29;20186;-69
2022/05/20 05:22:42;;;;;;;31.33;29.00;;;18.40;99.90;;;;;;4950974;28;20802;-72
2022/05/20 05:25:10;;;;;;;40.20;37.80;;;18.70;99.90;;;;;;4952797;28;20240;-72
2022/05/20 05:27:35;;;;;;;47.70;44.87;;;19.10;99.90;;;;;;4964716;28;20185;-72
2022/05/20 05:30:02;;;;;;;52.90;49.27;;;19.40;99.90;;;;;;4972288;28;20190;-72
2022/05/20 05:32:28;;;;;;;53.07;49.87;;;19.80;99.90;;;;;;4970778;28;20303;-72
2022/05/20 05:34:54;;;;;;;43.57;40.07;;;20.10;99.90;;;;;;4972263;28;20276;-70
2022/05/20 05:37:20;;;;;;;52.22;49.47;;;20.50;99.90;;;;;;4971631;28;20191;-71
2022/05/20 05:39:46;;;;;;;38.75;36.45;;;20.60;99.90;;;;;;4971284;28;20181;-72
2022/05/20 05:42:12;;;;;;;53.00;49.63;;;20.60;99.90;;;;;;4971104;28;20251;-72
2022/05/20 05:44:38;;;;;;;27.13;25.57;;;20.70;99.90;;;;;;4971047;28;20181;-72
2022/05/20 05:47:04;;;;;;;60.50;56.80;;;20.90;99.90;;;;;;4971683;28;20185;-71
2022/05/20 05:49:31;;;;;;;51.97;49.17;;;20.80;99.90;;;;;;4972125;28;20185;-71
2022/05/20 05:51:57;;;;;;;63.85;60.15;;;20.80;99.90;;;;;;4970895;28;20201;-71
2022/05/20 05:54:23;;;;;;;45.55;42.83;;;20.90;99.90;;;;;;4972193;28;20208;-69
2022/05/20 05:56:49;;;;;;;62.72;59.17;;;20.80;99.90;;;;;;4971692;28;20189;-71
2022/05/20 05:59:15;;;;;;;32.88;30.92;;;21.00;99.90;;;;;;4972120;28;20211;-71
2022/05/20 06:01:41;;;;;;;18.85;17.58;;;21.10;99.90;;;;;;4970594;28;20331;-71
2022/05/20 06:04:07;;;;;;;21.73;20.00;;;21.40;99.90;;;;;;4972315;28;20177;-70
2022/05/20 06:06:33;;;;;;;22.42;20.67;;;21.70;99.90;;;;;;4970654;28;20208;-70
2022/05/20 06:08:58;;;;;;;10.93;10.10;;;22.00;99.90;;;;;;4972324;28;20177;-70
2022/05/20 06:11:24;;;;;;;16.80;15.77;;;22.50;99.90;;;;;;4971982;28;20310;-70
2022/05/20 06:13:50;;;;;;;84.55;80.22;;;22.70;99.90;;;;;;4970932;28;20192;-71
2022/05/20 06:16:21;;;;;;;78.68;74.72;;;23.20;99.90;;;;;;4970325;28;20221;-71
2022/05/20 06:18:48;;;;;;;24.55;22.73;;;23.50;99.90;;;;;;4970499;28;20394;-71
2022/05/20 06:21:14;;;;;;;22.98;21.67;;;23.60;99.90;;;;;;4970915;28;20716;-71
2022/05/20 06:23:40;;;;;;;39.45;37.17;;;23.80;99.90;;;;;;4972390;28;20181;-70
2022/05/20 06:26:06;;;;;;;51.75;47.88;;;24.10;99.90;;;;;;4971838;28;20182;-71
2022/05/20 06:28:31;;;;;;;36.70;33.97;;;24.30;99.90;;;;;;4970462;28;20177;-72
2022/05/20 06:30:57;;;;;;;36.60;34.33;;;24.30;99.90;;;;;;4970523;28;20201;-71
2022/05/20 06:33:24;;;;;;;26.15;24.58;;;24.50;99.90;;;;;;4971837;28;20716;-71
2022/05/20 06:41:19;;;;;;;70.15;66.38;;;24.90;99.90;;;;;;4975045;28;20293;-71
2022/05/20 06:43:45;;;;;;;40.88;38.33;;;25.10;99.90;;;;;;4975053;28;20177;-70
2022/05/20 06:46:11;;;;;;;29.73;27.90;;;25.30;99.90;;;;;;4974778;28;20200;-70
2022/05/20 06:48:42;;;;;;;74.15;70.07;;;25.60;99.90;;;;;;4974706;28;20177;-72
2022/05/20 06:51:09;;;;;;;57.88;54.88;;;25.70;99.90;;;;;;4975063;28;20209;-71
2022/05/20 06:53:35;;;;;;;68.70;65.07;;;25.80;99.90;;;;;;4975051;28;20182;-71
2022/05/20 06:56:01;;;;;;;45.35;42.75;;;26.00;99.90;;;;;;4974977;28;20187;-71
2022/05/20 06:58:27;;;;;;;16.30;15.27;;;26.60;99.90;;;;;;4975108;28;20188;-72
2022/05/20 07:00:53;;;;;;;15.63;14.57;;;26.90;99.90;;;;;;4977189;28;20231;-72
2022/05/20 07:03:20;;;;;;;14.23;13.27;;;26.70;99.90;;;;;;4976922;28;20177;-71
2022/05/20 07:05:46;;;;;;;17.55;16.35;;;26.90;99.90;;;;;;4974412;28;20184;-71
2022/05/20 07:08:13;;;;;;;18.77;17.48;;;27.10;99.90;;;;;;4974659;28;20173;-71
2022/05/20 07:10:39;;;;;;;20.67;19.38;;;27.30;99.90;;;;;;4974710;28;20208;-71
2022/05/20 07:13:06;;;;;;;34.53;32.20;;;27.60;99.90;;;;;;4974711;28;20188;-71
2022/05/20 07:15:32;;;;;;;18.98;17.80;;;27.70;99.90;;;;;;4973228;28;20181;-72
2022/05/20 07:17:58;;;;;;;29.20;27.67;;;27.60;99.90;;;;;;4974250;28;20181;-72
2022/05/20 07:20:24;;;;;;;23.20;21.70;;;27.90;99.90;;;;;;4973197;28;20184;-72
2022/05/20 07:22:50;;;;;;;9.35;8.60;;;28.40;99.90;;;;;;4972594;28;20627;-71
2022/05/20 07:25:15;;;;;;;8.50;7.65;;;28.50;99.90;;;;;;4972902;28;20189;-71
2022/05/20 07:27:41;;;;;;;6.70;6.22;;;28.50;99.90;;;;;;4972532;28;20185;-70
2022/05/20 07:30:08;;;;;;;11.45;10.38;;;28.40;99.90;;;;;;4973165;28;20205;-72
2022/05/20 07:32:34;;;;;;;11.23;10.35;;;28.60;99.90;;;;;;4972710;28;20732;-72
2022/05/20 07:35:00;;;;;;;10.63;9.50;;;29.10;99.90;;;;;;4974334;28;20197;-72
2022/05/20 07:37:25;;;;;;;8.82;7.93;;;29.10;99.90;;;;;;4972536;28;20181;-70
2022/05/20 07:39:52;;;;;;;11.73;10.82;;;28.70;99.90;;;;;;4973016;28;20658;-71
2022/05/20 07:42:18;;;;;;;13.80;12.65;;;28.80;99.90;;;;;;4973838;28;20220;-70
2022/05/20 07:44:44;;;;;;;16.15;14.65;;;29.00;99.90;;;;;;4973848;28;20181;-72
2022/05/20 07:47:10;;;;;;;11.43;10.80;;;29.00;99.90;;;;;;4973743;28;20203;-71
2022/05/20 07:49:35;;;;;;;12.30;11.50;;;29.10;99.90;;;;;;4974198;28;20755;-72
2022/05/20 07:52:03;;;;;;;18.92;17.45;;;28.90;99.90;;;;;;4972490;28;20204;-71
2022/05/20 07:54:36;;;;;;;11.40;10.40;;;28.70;99.90;;;;;;4973719;28;20281;-70
2022/05/20 07:57:07;;;;;;;10.90;10.00;;;29.00;99.90;;;;;;4972344;28;20181;-70
2022/05/20 07:59:54;;;;;;;13.73;12.75;;;29.20;99.90;;;;;;4973813;28;20189;-70
2022/05/20 08:02:26;;;;;;;12.60;11.70;;;29.20;99.90;;;;;;4973339;28;20240;-70
2022/05/20 08:04:58;;;;;;;16.27;15.18;;;29.10;99.90;;;;;;4954483;28;20310;-70
2022/05/20 08:07:33;;;;;;;14.90;13.15;;;29.20;99.90;;;;;;4954652;28;20237;-68
2022/05/20 08:10:11;;;;;;;11.27;10.40;;;29.70;99.90;;;;;;4953402;29;20282;-71
2022/05/20 08:12:38;;;;;;;16.73;15.38;;;30.00;99.90;;;;;;4956072;28;20185;-72
2022/05/20 08:15:05;;;;;;;15.25;13.95;;;30.20;99.90;;;;;;4972307;28;20239;-70
2022/05/20 08:17:35;;;;;;;13.18;12.13;;;30.40;99.90;;;;;;4973029;28;20239;-71
2022/05/20 08:20:04;;;;;;;26.73;25.08;;;30.20;99.90;;;;;;4972229;28;20212;-71
2022/05/20 08:22:31;;;;;;;32.47;30.35;;;30.50;99.90;;;;;;4972865;28;20299;-70
2022/05/20 08:24:58;;;;;;;26.67;24.85;;;30.90;99.90;;;;;;4973180;28;20277;-71
2022/05/20 08:27:26;;;;;;;34.90;32.60;;;31.10;99.90;;;;;;4972446;28;20185;-71
2022/05/20 08:29:52;;;;;;;18.75;17.67;;;31.20;99.90;;;;;;4973284;28;20673;-70
2022/05/20 08:32:19;;;;;;;9.13;8.23;;;31.20;99.90;;;;;;4971965;28;20196;-71
2022/05/20 08:34:46;;;;;;;6.28;5.68;;;31.60;99.90;;;;;;4973006;28;20189;-71
2022/05/20 08:37:13;;;;;;;10.45;9.70;;;31.70;99.90;;;;;;4972785;28;20316;-70
2022/05/20 08:39:39;;;;;;;8.88;8.27;;;31.80;99.90;;;;;;4973054;28;20192;-69
2022/05/20 08:42:13;;;;;;;9.27;8.30;;;31.20;99.90;;;;;;4972845;28;20609;-70
2022/05/20 08:44:40;;;;;;;8.85;8.25;;;30.90;99.90;;;;;;4972863;28;20665;-70
2022/05/20 08:47:14;;;;;;;10.52;9.70;;;31.00;99.70;;;;;;4971680;28;20173;-69
2022/05/20 08:49:41;;;;;;;17.40;16.48;;;31.20;99.90;;;;;;4971771;28;20192;-70
2022/05/20 08:52:07;;;;;;;11.05;10.35;;;31.30;99.90;;;;;;4971549;28;20212;-70
2022/05/20 08:54:33;;;;;;;9.57;8.65;;;31.20;99.30;;;;;;4971139;28;20189;-70
2022/05/20 08:57:15;;;;;;;9.48;8.63;;;31.40;99.00;;;;;;4970714;28;20268;-71
2022/05/20 08:59:41;;;;;;;12.40;11.05;;;31.50;97.90;;;;;;4972513;28;20184;-71
2022/05/20 09:02:06;;;;;;;9.05;8.50;;;31.70;98.60;;;;;;4972166;28;20271;-70
2022/05/20 09:04:32;;;;;;;9.93;9.13;;;32.20;96.30;;;;;;4972030;28;20320;-70
2022/05/20 09:07:03;;;;;;;11.05;10.15;;;32.30;96.60;;;;;;4971898;28;20687;-71
2022/05/20 09:09:41;;;;;;;10.38;9.65;;;32.70;98.00;;;;;;4972302;28;20207;-70
2022/05/20 09:12:08;;;;;;;7.93;6.82;;;33.40;95.20;;;;;;4972272;28;20200;-70
2022/05/20 09:17:24;;;;;;;8.50;7.80;;;33.30;95.20;;;;;;4971533;28;20184;-74
2022/05/20 09:20:01;;;;;;;10.60;9.77;;;33.30;91.90;;;;;;4970808;28;20354;-73
2022/05/20 09:22:30;;;;;;;6.82;6.18;;;33.70;91.20;;;;;;4971699;28;20223;-73
2022/05/20 09:24:57;;;;;;;8.52;5.88;;;33.70;93.90;;;;;;4971731;28;20185;-72
2022/05/20 09:27:32;;;;;;;9.50;7.32;;;33.70;93.50;;;;;;4971473;28;20551;-73
2022/05/20 09:30:07;;;;;;;11.10;7.82;;;33.50;94.50;;;;;;4971778;28;20188;-74
2022/05/20 09:32:58;;;;;;;11.38;10.38;;;34.10;89.00;;;;;;4971649;28;20215;-73
2022/05/20 09:35:30;;;;;;;8.70;7.32;;;34.40;87.90;;;;;;4970467;28;20188;-72
2022/05/20 09:37:58;;;;;;;8.35;7.72;;;34.20;88.90;;;;;;4971580;28;20663;-72
2022/05/20 09:40:32;;;;;;;6.65;6.15;;;33.90;88.30;;;;;;4971971;28;20279;-72
2022/05/20 09:43:03;;;;;;;19.67;18.27;;;34.10;90.10;;;;;;4970645;28;20216;-72
2022/05/20 09:45:43;;;;;;;19.73;18.52;;;34.30;80.70;;;;;;4970937;28;20828;-74
2022/05/20 09:48:10;;;;;;;21.42;19.58;;;34.40;71.30;;;;;;4972132;28;20327;-73
2022/05/20 09:50:38;;;;;;;20.92;19.67;;;34.20;72.30;;;;;;4970986;28;20204;-74
2022/05/20 09:53:38;;;;;;;15.38;14.30;;;34.20;77.80;;;;;;4971672;28;20189;-74
2022/05/20 09:56:24;;;;;;;17.50;16.30;;;34.20;71.00;;;;;;4972114;28;20189;-74
2022/05/20 09:59:25;;;;;;;14.18;13.13;;;34.30;69.50;;;;;;4971713;28;20193;-74
2022/05/20 10:02:04;;;;;;;10.43;9.35;;;33.70;69.80;;;;;;4970465;28;20696;-74
2022/05/20 10:04:58;;;;;;;20.35;18.80;;;33.70;70.20;;;;;;4971797;28;20196;-74
2022/05/20 10:07:55;;;;;;;16.25;15.07;;;34.30;74.80;;;;;;4971702;28;20212;-72
2022/05/20 10:11:00;;;;;;;16.23;15.20;;;34.50;72.40;;;;;;4974479;28;20201;-73
2022/05/20 10:13:55;;;;;;;14.23;13.13;;;34.60;70.30;;;;;;4974135;28;20227;-73
2022/05/20 10:16:24;;;;;;;8.20;7.47;;;34.80;68.70;;;;;;4973889;28;20189;-73
2022/05/20 10:19:00;;;;;;;8.57;7.78;;;34.80;64.50;;;;;;4973871;28;20221;-73
2022/05/20 10:22:00;;;;;;;13.25;12.45;;;34.90;62.60;;;;;;4974185;28;20212;-73
2022/05/20 10:24:38;;;;;;;9.63;5.78;;;34.80;63.90;;;;;;4974885;28;20222;-75
2022/05/20 10:27:23;;;;;;;6.65;6.18;;;34.40;62.50;;;;;;4973734;28;20794;-73
2022/05/20 10:33:28;;;;;;;11.15;5.82;;;34.20;64.70;;;;;;4974916;28;20188;-73
2022/05/20 10:36:00;;;;;;;8.00;5.97;;;34.70;62.10;;;;;;4973916;28;20203;-73
2022/05/20 10:38:59;;;;;;;8.70;5.38;;;34.60;59.80;;;;;;4974844;28;20653;-71
2022/05/20 10:41:40;;;;;;;8.60;5.70;;;35.20;64.50;;;;;;4973944;28;20213;-72
2022/05/20 10:50:24;;;;;;;8.25;7.40;;;34.60;59.00;;;;;;4974855;28;20185;-73
2022/05/20 10:53:35;;;;;;;17.23;16.23;;;34.60;60.50;;;;;;4989896;28;20184;-73
2022/05/20 10:56:00;;;;;;;12.85;11.75;;;34.40;59.50;;;;;;4955370;28;20278;-73
2022/05/20 10:59:04;;;;;;;8.98;5.05;;;34.20;60.80;;;;;;4955126;29;20788;-73
2022/05/20 11:01:43;;;;;;;7.22;5.40;;;34.00;62.70;;;;;;4969935;28;20716;-73
2022/05/20 11:04:29;;;;;;;29.08;27.45;;;34.30;61.90;;;;;;4973200;28;20213;-73
2022/05/20 11:07:33;;;;;;;63.60;60.20;;;34.80;55.00;;;;;;4955305;29;20705;-73
2022/05/20 11:10:18;;;;;;;48.20;45.47;;;34.80;54.10;;;;;;4955234;29;20178;-74
2022/05/20 11:12:49;;;;;;;32.53;30.60;;;35.20;56.30;;;;;;4955131;29;20190;-74
2022/05/20 11:15:41;;;;;;;77.78;73.43;;;36.10;55.50;;;;;;4973001;28;20185;-74
2022/05/20 11:18:20;;;;;;;60.47;57.38;;;36.40;53.20;;;;;;4973743;28;20661;-73
2022/05/20 11:21:05;;;;;;;29.42;27.65;;;36.30;51.80;;;;;;4974062;28;20215;-72
2022/05/20 11:23:44;;;;;;;6.50;5.35;;;36.50;52.30;;;;;;4973894;28;20661;-73
2022/05/20 11:27:03;;;;;;;5.85;4.68;;;36.80;50.20;;;;;;4974230;28;20188;-73
2022/05/20 11:29:59;;;;;;;6.15;5.55;;;37.00;49.70;;;;;;4914411;29;20194;-72
2022/05/20 11:32:34;;;;;;;9.90;5.45;;;36.80;49.20;;;;;;4973890;28;20233;-72
2022/05/20 11:35:27;;;;;;;6.68;4.93;;;36.60;48.60;;;;;;4973607;28;20188;-74
2022/05/20 11:38:26;;;;;;;6.15;5.70;;;36.90;51.90;;;;;;4972594;28;20213;-74
2022/05/20 11:41:05;;;;;;;9.20;5.10;;;37.20;49.40;;;;;;4973887;28;20205;-73
2022/05/20 11:44:00;;;;;;;5.93;5.07;;;36.90;48.40;;;;;;4973629;28;20185;-73
2022/05/20 11:46:26;;;;;;;8.93;4.93;;;37.50;48.50;;;;;;4973923;28;20192;-74
2022/05/20 11:49:12;;;;;;;6.80;4.45;;;38.10;45.90;;;;;;4973612;28;20560;-74
2022/05/20 11:52:02;;;;;;;5.10;4.68;;;38.20;46.40;;;;;;4973605;28;20210;-74
2022/05/20 11:54:59;;;;;;;6.60;4.40;;;38.20;44.80;;;;;;4973461;28;20782;-74
2022/05/20 11:57:35;;;;;;;5.85;4.80;;;38.40;47.80;;;;;;4973287;28;20275;-74
2022/05/20 12:00:06;;;;;;;6.20;4.28;;;38.20;45.90;;;;;;4973477;28;20212;-74
2022/05/20 12:02:44;;;;;;;8.38;4.32;;;38.70;43.90;;;;;;4973439;28;20217;-75
2022/05/20 12:05:14;;;;;;;5.57;4.05;;;39.30;43.50;;;;;;4973427;28;20188;-74
2022/05/20 12:07:41;;;;;;;5.72;4.32;;;39.80;43.20;;;;;;4971851;28;20185;-74
2022/05/20 12:10:31;;;;;;;6.88;4.75;;;39.30;42.60;;;;;;4973574;28;20173;-73
2022/05/20 12:13:13;;;;;;;6.03;4.20;;;38.80;43.50;;;;;;4973370;28;20275;-73
2022/05/20 12:15:41;;;;;;;7.68;4.75;;;39.00;43.80;;;;;;4973241;28;20185;-74
2022/05/20 12:24:50;;;;;;;6.05;5.07;;;40.30;41.30;;;;;;4972801;28;20179;-74
2022/05/20 12:27:25;;;;;;;5.40;4.38;;;40.50;42.00;;;;;;4969676;28;20197;-74
2022/05/20 12:30:06;;;;;;;6.68;4.40;;;39.40;39.40;;;;;;4973269;28;20656;-74
2022/05/20 12:32:35;;;;;;;9.85;4.97;;;39.30;40.90;;;;;;4971593;28;20209;-74
2022/05/20 12:35:24;;;;;;;6.07;5.43;;;39.60;40.40;;;;;;4977964;28;20181;-81
2022/05/20 12:37:53;;;;;;;7.60;4.82;;;39.10;39.20;;;;;;4984645;28;20197;-81
2022/05/20 12:40:26;;;;;;;6.63;5.25;;;38.70;40.20;;;;;;4984378;28;20204;-80
2022/05/20 12:43:01;;;;;;;5.95;5.20;;;38.40;40.60;;;;;;4986614;28;20228;-81
2022/05/20 12:45:49;;;;;;;5.45;4.65;;;38.70;39.80;;;;;;4987334;28;20177;-82
2022/05/20 12:48:23;;;;;;;6.47;5.88;;;38.50;39.40;;;;;;4987556;28;20228;-82
2022/05/20 12:51:07;;;;;;;6.50;5.72;;;38.30;39.30;;;;;;4986389;28;20212;-79
2022/05/20 12:53:38;;;;;;;10.30;6.15;;;38.70;41.10;;;;;;4987780;28;20176;-81
2022/05/20 12:56:04;;;;;;;5.00;4.50;;;38.90;39.70;;;;;;4998409;28;20212;-79
2022/05/20 12:58:35;;;;;;;8.00;4.40;;;39.10;38.20;;;;;;4985520;28;20185;-81
2022/05/20 13:01:03;;;;;;;7.90;4.65;;;39.10;40.00;;;;;;4985301;28;20208;-80
2022/05/20 13:03:33;;;;;;;6.22;4.43;;;39.10;37.70;;;;;;4984354;28;20188;-81
2022/05/20 13:06:16;;;;;;;5.63;4.50;;;39.40;39.90;;;;;;4983331;28;20181;-81
2022/05/20 13:08:50;;;;;;;7.28;4.60;;;39.50;38.30;;;;;;4980670;28;20260;-80
2022/05/20 13:11:18;;;;;;;6.53;4.13;;;39.90;40.30;;;;;;4979885;28;20259;-79
2022/05/20 13:13:45;;;;;;;6.35;4.35;;;40.40;38.00;;;;;;4983433;28;20306;-81
2022/05/20 13:16:14;;;;;;;6.75;4.22;;;40.40;38.90;;;;;;4985080;28;20544;-80
2022/05/20 13:18:43;;;;;;;12.23;4.50;;;41.00;39.10;;;;;;4983770;28;20211;-80
2022/05/20 13:21:20;;;;;;;6.72;4.18;;;41.20;37.60;;;;;;4985681;28;20685;-80
2022/05/20 13:23:51;;;;;;;8.23;4.00;;;41.90;35.50;;;;;;4979324;28;20196;-78
2022/05/20 13:26:29;;;;;;;9.05;4.15;;;41.70;35.10;;;;;;4979207;28;20228;-79
2022/05/20 13:29:17;;;;;;;6.50;4.13;;;40.90;34.70;;;;;;4979626;28;20192;-78
2022/05/20 13:31:43;;;;;;;6.07;5.47;;;39.80;35.70;;;;;;4976320;28;20204;-78
2022/05/20 13:34:09;;;;;;;7.28;4.97;;;39.70;36.00;;;;;;4991631;28;20183;-77
2022/05/20 13:36:48;;;;;;;5.75;5.13;;;40.10;36.60;;;;;;4978490;28;20189;-78
2022/05/20 13:39:20;;;;;;;10.07;4.93;;;40.60;37.10;;;;;;4983481;28;20192;-81
2022/05/20 13:41:48;;;;;;;5.72;4.65;;;41.40;36.40;;;;;;4984660;28;20217;-81
2022/05/20 13:44:14;;;;;;;8.25;5.35;;;41.10;35.30;;;;;;4985471;28;20574;-80
2022/05/20 13:49:35;;;;;;;7.50;5.10;;;40.80;37.20;;;;;;4968640;29;20193;-79
2022/05/20 13:52:05;;;;;;;6.82;6.15;;;41.30;37.60;;;;;;4966316;28;20208;-81
2022/05/20 13:54:42;;;;;;;6.10;3.53;;;41.70;35.70;;;;;;4979410;28;20177;-81
2022/05/20 13:57:15;;;;;;;7.47;4.40;;;41.70;34.50;;;;;;4982517;28;20188;-81
2022/05/20 13:59:41;;;;;;;6.90;5.15;;;41.40;34.60;;;;;;4977385;28;20554;-85
2022/05/20 14:02:10;;;;;;;9.75;3.92;;;41.30;35.00;;;;;;4939778;28;1118883;-83
2022/05/20 14:04:48;;;;;;;5.05;4.43;;;41.50;35.30;;;;;;4978789;28;20181;-85
2022/05/20 14:07:22;;;;;;;5.38;3.83;;;41.30;34.30;;;;;;4978916;28;20285;-85
2022/05/20 14:09:59;;;;;;;7.35;5.45;;;41.00;34.30;;;;;;4980661;28;20271;-85
2022/05/20 14:12:29;;;;;;;5.75;5.15;;;40.80;35.80;;;;;;4980685;28;20228;-81
2022/05/20 14:15:12;;;;;;;9.18;8.35;;;40.90;35.40;;;;;;4986615;28;20184;-83
2022/05/20 14:17:42;;;;;;;7.85;4.53;;;41.40;35.80;;;;;;4979304;28;20269;-85
2022/05/20 14:20:12;;;;;;;6.18;4.75;;;41.50;34.70;;;;;;4982213;28;20189;-83
2022/05/20 14:22:40;;;;;;;9.70;6.13;;;42.00;36.20;;;;;;4983032;28;20184;-83
2022/05/20 14:25:23;;;;;;;8.10;7.18;;;42.00;36.40;;;;;;4976817;28;20181;-81
2022/05/20 14:28:03;;;;;;;7.47;6.70;;;41.10;37.60;;;;;;4979410;28;20666;-86
2022/05/20 14:30:34;;;;;;;10.45;8.40;;;41.10;38.00;;;;;;4976714;28;20744;-91
2022/05/20 14:33:08;;;;;;;11.18;7.20;;;41.20;38.10;;;;;;4975984;28;20347;-91
2022/05/20 14:35:42;;;;;;;12.32;10.80;;;40.70;38.60;;;;;;4976294;28;20185;-88
2022/05/20 14:38:12;;;;;;;9.18;7.00;;;39.50;39.20;;;;;;4978650;28;20192;-90
2022/05/20 14:40:40;;;;;;;7.63;4.55;;;38.60;39.80;;;;;;4977451;28;20205;-89
2022/05/20 14:43:16;;;;;;;6.32;4.85;;;37.70;42.50;;;;;;4977678;28;20185;-88
2022/05/20 14:45:57;;;;;;;6.20;5.40;;;36.80;42.60;;;;;;4977204;28;20219;-90
2022/05/20 14:48:36;;;;;;;14.45;13.13;;;36.00;45.30;;;;;;4991098;28;20259;-89
2022/05/20 14:51:03;;;;;;;9.85;8.95;;;35.40;46.30;;;;;;4989532;28;20207;-88
2022/05/20 14:53:38;;;;;;;8.65;6.03;;;34.90;48.80;;;;;;4988394;28;20188;-88
2022/05/20 14:56:05;;;;;;;19.55;18.02;;;34.40;49.90;;;;;;4974625;28;20776;-91
2022/05/20 14:58:33;;;;;;;94.00;89.18;;;33.80;50.60;;;;;;4975260;28;20180;-87
2022/05/20 15:01:00;;;;;;;288.98;273.92;;;33.50;51.60;;;;;;4975136;28;20213;-86
2022/05/20 15:03:38;;;;;;;362.35;343.13;;;33.00;52.50;;;;;;4975940;28;20188;-89
2022/05/20 15:06:05;;;;;;;359.52;340.58;;;32.70;54.40;;;;;;4957437;28;20170;-86
2022/05/20 15:08:33;;;;;;;14.60;13.18;;;32.20;50.90;;;;;;4967507;29;20178;-78
2022/05/20 15:11:05;;;;;;;244.80;231.88;;;31.90;56.30;;;;;;4957084;28;20205;-77
2022/05/20 15:13:32;;;;;;;65.82;62.17;;;30.80;64.10;;;;;;4977432;28;20191;-77
2022/05/20 15:15:58;;;;;;;178.80;166.32;;;28.20;75.90;;;;;;4978726;28;20185;-77
2022/05/20 15:18:24;;;;;;;62.17;57.42;;;26.50;93.00;;;;;;4972690;28;20182;-77
2022/05/20 15:20:52;;;;;;;118.03;110.65;;;25.20;99.90;;;;;;4969897;28;20681;-77
2022/05/20 15:23:38;;;;;;;329.52;308.25;;;24.60;99.90;;;;;;4977395;28;20207;-77
2022/05/20 15:26:07;;;;;;;94.80;88.13;;;24.70;99.90;;;;;;4970825;28;20185;-78
2022/05/20 15:28:48;;;;;;;294.58;276.52;;;25.50;99.90;;;;;;4970312;28;20181;-79
2022/05/20 15:36:50;;;;;;;17.92;16.55;;;29.60;99.90;;;;;;4964993;28;20263;-75
2022/05/20 15:39:30;;;;;;;11.52;10.60;;;30.80;99.90;;;;;;4973905;28;20181;-76
2022/05/20 15:41:56;;;;;;;65.20;61.50;;;31.50;99.90;;;;;;4973678;28;20231;-75
2022/05/20 15:44:22;;;;;;;21.92;20.30;;;32.10;99.90;;;;;;4972447;28;20641;-76
2022/05/20 15:46:48;;;;;;;25.15;23.20;;;32.10;99.40;;;;;;4971823;28;20193;-76
2022/05/20 15:49:14;;;;;;;38.88;36.30;;;32.20;97.70;;;;;;4971955;28;20188;-75
2022/05/20 15:51:40;;;;;;;8.45;7.75;;;32.20;97.30;;;;;;4970601;28;20308;-74
2022/05/20 15:54:07;;;;;;;26.45;24.52;;;31.60;93.10;;;;;;4972246;28;20178;-75
2022/05/20 15:56:35;;;;;;;30.13;28.15;;;30.40;96.30;;;;;;4973814;28;20438;-77
2022/05/20 15:59:00;;;;;;;25.50;23.55;;;29.60;99.10;;;;;;4971998;28;20188;-73
2022/05/20 16:01:27;;;;;;;19.95;18.60;;;28.80;99.90;;;;;;4972410;28;20220;-73
2022/05/20 16:03:53;;;;;;;23.92;22.10;;;28.30;99.90;;;;;;4973733;28;20189;-73
2022/05/20 16:06:24;;;;;;;11.40;9.25;;;28.00;99.90;;;;;;4972368;28;20214;-73
2022/05/20 16:08:52;;;;;;;25.05;22.50;;;27.90;99.90;;;;;;4973279;28;20192;-73
2022/05/20 16:11:23;;;;;;;18.73;17.05;;;27.80;99.90;;;;;;4973561;28;20699;-72
2022/05/20 16:13:49;;;;;;;12.65;11.30;;;27.70;99.90;;;;;;4973635;28;20216;-73
2022/05/20 16:16:15;;;;;;;10.25;9.02;;;27.60;99.90;;;;;;4972180;28;20232;-76
2022/05/20 16:18:41;;;;;;;13.68;12.35;;;27.60;99.90;;;;;;4973091;28;20303;-77
2022/05/20 16:21:07;;;;;;;12.25;7.88;;;28.40;99.90;;;;;;4972296;28;20201;-77
2022/05/20 16:23:40;;;;;;;11.45;9.27;;;29.20;99.90;;;;;;4973442;28;20185;-77
2022/05/20 16:26:07;;;;;;;20.00;18.25;;;29.70;99.90;;;;;;4973460;28;20185;-77
2022/05/20 16:28:33;;;;;;;26.33;24.27;;;30.00;99.90;;;;;;4973058;28;20619;-77
2022/05/20 16:31:00;;;;;;;34.55;32.42;;;30.30;96.40;;;;;;4972090;28;20204;-77
2022/05/20 16:33:27;;;;;;;34.13;31.65;;;30.20;96.20;;;;;;4973341;28;20572;-78
2022/05/20 16:35:53;;;;;;;31.48;28.80;;;29.80;97.90;;;;;;4972385;28;20182;-74
2022/05/20 16:38:21;;;;;;;34.30;31.77;;;29.40;97.30;;;;;;4971193;28;20181;-75
2022/05/20 16:40:47;;;;;;;32.10;29.58;;;29.00;97.00;;;;;;4971748;28;20213;-76
2022/05/20 16:43:13;;;;;;;29.58;27.50;;;28.80;97.70;;;;;;4973386;28;20185;-74